M I D A S
Marine Information and Data Acquisition System
Tripno 1320 of the Zeeleeuw from 2007-08-08 08:30:00 to 2007-08-08 14:00:00
Back to CruiseResearch ActivitiesStationsMapUnderway DataData graphs

EquipmentUnitsComments
TimeDGPSUTC
LatitudeDGPSDM.mWGS84
LongitudeDGPSDM.mWGS84
SpeedMeteo Stationm/sRelative wind speed
DirectionMeteo StationdegRelative wind direction
TemperatureMeteo Stationdeg CelciusAir temperature
PressureMeteo StationPaAtmospheric pressure
HumidityMeteo Station%Relative humidity
Missing or incorrect values are displayed as -999
Metereological data collected by the RV Zeeleeuw from 2007-08-08 08:30:00 to 2007-08-08 14:00:00
                                                                                    Next 1000 lines
Time Latitude Longitude Speed Direction Temperature Pressure Humidity
2007-08-08 08:30:06 51°13.602 2°56.098 -999 -999 -999 -999 -999
2007-08-08 08:30:11 51°13.601 2°56.098 -999 -999 -999 -999 -999
2007-08-08 08:30:16 51°13.601 2°56.098 -999 -999 -999 -999 -999
2007-08-08 08:30:21 51°13.601 2°56.098 -999 -999 -999 -999 -999
2007-08-08 08:30:26 51°13.601 2°56.098 -999 -999 -999 -999 -999
2007-08-08 08:30:36 51°13.601 2°56.098 -999 -999 -999 -999 -999
2007-08-08 08:30:41 51°13.601 2°56.098 -999 -999 -999 -999 -999
2007-08-08 08:30:47 51°13.602 2°56.099 -999 -999 -999 -999 -999
2007-08-08 08:30:51 51°13.602 2°56.099 -999 -999 -999 -999 -999
2007-08-08 08:30:56 51°13.602 2°56.099 -999 -999 -999 -999 -999
2007-08-08 08:31:01 51°13.602 2°56.1 -999 -999 -999 -999 -999
2007-08-08 08:31:06 51°13.602 2°56.1 -999 -999 -999 -999 -999
2007-08-08 08:31:11 51°13.602 2°56.1 -999 -999 -999 -999 -999
2007-08-08 08:31:16 51°13.602 2°56.1 -999 -999 -999 -999 -999
2007-08-08 08:31:21 51°13.601 2°56.1 -999 -999 -999 -999 -999
2007-08-08 08:31:31 51°13.601 2°56.1 -999 -999 -999 -999 -999
2007-08-08 08:31:41 51°13.601 2°56.1 -999 -999 -999 -999 -999
2007-08-08 08:31:51 51°13.602 2°56.1 -999 -999 -999 -999 -999
2007-08-08 08:31:56 51°13.602 2°56.1 -999 -999 -999 -999 -999
2007-08-08 08:32:01 51°13.602 2°56.1 -999 -999 -999 -999 -999
2007-08-08 08:32:11 51°13.602 2°56.1 -999 -999 -999 -999 -999
2007-08-08 08:32:21 51°13.601 2°56.1 -999 -999 -999 -999 -999
2007-08-08 08:32:26 51°13.601 2°56.099 -999 -999 -999 -999 -999
2007-08-08 08:32:31 51°13.601 2°56.099 -999 -999 -999 -999 -999
2007-08-08 08:32:36 51°13.602 2°56.097 -999 -999 -999 -999 -999
2007-08-08 08:32:41 51°13.602 2°56.095 -999 -999 -999 -999 -999
2007-08-08 08:32:46 51°13.602 2°56.093 -999 -999 -999 -999 -999
2007-08-08 08:32:51 51°13.603 2°56.091 -999 -999 -999 -999 -999
2007-08-08 08:32:56 51°13.604 2°56.089 -999 -999 -999 -999 -999
2007-08-08 08:33:01 51°13.605 2°56.085 -999 -999 -999 -999 -999
2007-08-08 08:33:06 51°13.606 2°56.081 -999 -999 -999 -999 -999
2007-08-08 08:33:11 51°13.607 2°56.076 -999 -999 -999 -999 -999
2007-08-08 08:33:16 51°13.608 2°56.071 -999 -999 -999 -999 -999
2007-08-08 08:33:21 51°13.61 2°56.065 -999 -999 -999 -999 -999
2007-08-08 08:33:27 51°13.612 2°56.057 -999 -999 -999 -999 -999
2007-08-08 08:33:31 51°13.613 2°56.052 -999 -999 -999 -999 -999
2007-08-08 08:33:36 51°13.615 2°56.044 -999 -999 -999 -999 -999
2007-08-08 08:33:41 51°13.617 2°56.037 -999 -999 -999 -999 -999
2007-08-08 08:33:46 51°13.619 2°56.029 -999 -999 -999 -999 -999
2007-08-08 08:33:51 51°13.621 2°56.02 -999 -999 -999 -999 -999
2007-08-08 08:33:57 51°13.623 2°56.01 -999 -999 -999 -999 -999
2007-08-08 08:34:01 51°13.625 2°56.003 -999 -999 -999 -999 -999
2007-08-08 08:34:06 51°13.627 2°55.994 -999 -999 -999 -999 -999
2007-08-08 08:34:11 51°13.63 2°55.986 -999 -999 -999 -999 -999
2007-08-08 08:34:17 51°13.634 2°55.975 -999 -999 -999 -999 -999
2007-08-08 08:34:22 51°13.637 2°55.966 -999 -999 -999 -999 -999
2007-08-08 08:34:26 51°13.639 2°55.959 -999 -999 -999 -999 -999
2007-08-08 08:34:31 51°13.642 2°55.95 -999 -999 -999 -999 -999
2007-08-08 08:34:37 51°13.646 2°55.94 -999 -999 -999 -999 -999
2007-08-08 08:34:42 51°13.65 2°55.931 -999 -999 -999 -999 -999
2007-08-08 08:34:46 51°13.653 2°55.924 -999 -999 -999 -999 -999
2007-08-08 08:34:51 51°13.657 2°55.915 -999 -999 -999 -999 -999
2007-08-08 08:34:56 51°13.661 2°55.905 -999 -999 -999 -999 -999
2007-08-08 08:35:02 51°13.667 2°55.894 -999 -999 -999 -999 -999
2007-08-08 08:35:06 51°13.67 2°55.887 -999 -999 -999 -999 -999
2007-08-08 08:35:11 51°13.675 2°55.877 -999 -999 -999 -999 -999
2007-08-08 08:35:16 51°13.679 2°55.868 -999 -999 -999 -999 -999
2007-08-08 08:35:21 51°13.684 2°55.858 -999 -999 -999 -999 -999
2007-08-08 08:35:27 51°13.69 2°55.847 -999 -999 -999 -999 -999
2007-08-08 08:35:31 51°13.694 2°55.839 -999 -999 -999 -999 -999
2007-08-08 08:35:36 51°13.699 2°55.829 -999 -999 -999 -999 -999
2007-08-08 08:35:41 51°13.705 2°55.819 -999 -999 -999 -999 -999
2007-08-08 08:35:47 51°13.711 2°55.807 -999 -999 -999 -999 -999
2007-08-08 08:35:51 51°13.716 2°55.798 -999 -999 -999 -999 -999
2007-08-08 08:35:56 51°13.721 2°55.788 -999 -999 -999 -999 -999
2007-08-08 08:36:01 51°13.726 2°55.777 -999 -999 -999 -999 -999
2007-08-08 08:36:06 51°13.732 2°55.767 -999 -999 -999 -999 -999
2007-08-08 08:36:11 51°13.737 2°55.756 -999 -999 -999 -999 -999
2007-08-08 08:36:16 51°13.743 2°55.746 -999 -999 -999 -999 -999
2007-08-08 08:36:21 51°13.749 2°55.735 -999 -999 -999 -999 -999
2007-08-08 08:36:26 51°13.755 2°55.725 -999 -999 -999 -999 -999
2007-08-08 08:36:31 51°13.761 2°55.714 -999 -999 -999 -999 -999
2007-08-08 08:36:37 51°13.769 2°55.703 -999 -999 -999 -999 -999
2007-08-08 08:36:42 51°13.775 2°55.693 -999 -999 -999 -999 -999
2007-08-08 08:36:46 51°13.781 2°55.686 -999 -999 -999 -999 -999
2007-08-08 08:36:51 51°13.788 2°55.677 -999 -999 -999 -999 -999
2007-08-08 08:36:56 51°13.795 2°55.669 -999 -999 -999 -999 -999
2007-08-08 08:37:01 51°13.802 2°55.661 -999 -999 -999 -999 -999
2007-08-08 08:37:06 51°13.809 2°55.653 -999 -999 -999 -999 -999
2007-08-08 08:37:11 51°13.817 2°55.647 -999 -999 -999 -999 -999
2007-08-08 08:37:16 51°13.825 2°55.64 -999 -999 -999 -999 -999
2007-08-08 08:37:22 51°13.834 2°55.634 -999 -999 -999 -999 -999
2007-08-08 08:37:27 51°13.842 2°55.63 -999 -999 -999 -999 -999
2007-08-08 08:37:31 51°13.848 2°55.627 -999 -999 -999 -999 -999
2007-08-08 08:37:36 51°13.856 2°55.624 -999 -999 -999 -999 -999
2007-08-08 08:37:41 51°13.864 2°55.622 -999 -999 -999 -999 -999
2007-08-08 08:37:46 51°13.872 2°55.621 -999 -999 -999 -999 -999
2007-08-08 08:37:51 51°13.879 2°55.621 -999 -999 -999 -999 -999
2007-08-08 08:37:56 51°13.886 2°55.622 -999 -999 -999 -999 -999
2007-08-08 08:38:01 51°13.893 2°55.623 -999 -999 -999 -999 -999
2007-08-08 08:38:06 51°13.899 2°55.625 -999 -999 -999 -999 -999
2007-08-08 08:38:11 51°13.905 2°55.627 -999 -999 -999 -999 -999
2007-08-08 08:38:16 51°13.911 2°55.63 -999 -999 -999 -999 -999
2007-08-08 08:38:21 51°13.916 2°55.633 -999 -999 -999 -999 -999
2007-08-08 08:38:26 51°13.921 2°55.636 -999 -999 -999 -999 -999
2007-08-08 08:38:32 51°13.926 2°55.641 -999 -999 -999 -999 -999
2007-08-08 08:38:37 51°13.93 2°55.644 -999 -999 -999 -999 -999
2007-08-08 08:38:41 51°13.933 2°55.647 -999 -999 -999 -999 -999
2007-08-08 08:38:46 51°13.937 2°55.652 -999 -999 -999 -999 -999
2007-08-08 08:38:51 51°13.94 2°55.656 -999 -999 -999 -999 -999
2007-08-08 08:38:57 51°13.943 2°55.66 -999 -999 -999 -999 -999
2007-08-08 08:39:02 51°13.946 2°55.664 -999 -999 -999 -999 -999
2007-08-08 08:39:06 51°13.947 2°55.666 -999 -999 -999 -999 -999
2007-08-08 08:39:11 51°13.949 2°55.668 -999 -999 -999 -999 -999
2007-08-08 08:39:16 51°13.949 2°55.669 -999 -999 -999 -999 -999
2007-08-08 08:39:21 51°13.95 2°55.668 -999 -999 -999 -999 -999
2007-08-08 08:39:26 51°13.949 2°55.665 -999 -999 -999 -999 -999
2007-08-08 08:39:31 51°13.949 2°55.661 -999 -999 -999 -999 -999
2007-08-08 08:39:36 51°13.949 2°55.657 -999 -999 -999 -999 -999
2007-08-08 08:39:42 51°13.95 2°55.652 -999 -999 -999 -999 -999
2007-08-08 08:39:46 51°13.95 2°55.649 -999 -999 -999 -999 -999
2007-08-08 08:39:51 51°13.951 2°55.644 -999 -999 -999 -999 -999
2007-08-08 08:39:56 51°13.952 2°55.638 -999 -999 -999 -999 -999
2007-08-08 08:40:01 51°13.954 2°55.633 -999 -999 -999 -999 -999
2007-08-08 08:40:07 51°13.956 2°55.626 -999 -999 -999 -999 -999
2007-08-08 08:40:11 51°13.959 2°55.62 -999 -999 -999 -999 -999
2007-08-08 08:40:16 51°13.962 2°55.614 -999 -999 -999 -999 -999
2007-08-08 08:40:21 51°13.966 2°55.607 -999 -999 -999 -999 -999
2007-08-08 08:40:27 51°13.972 2°55.598 -999 -999 -999 -999 -999
2007-08-08 08:40:31 51°13.976 2°55.592 -999 -999 -999 -999 -999
2007-08-08 08:40:36 51°13.982 2°55.584 -999 -999 -999 -999 -999
2007-08-08 08:40:41 51°13.988 2°55.575 -999 -999 -999 -999 -999
2007-08-08 08:40:46 51°13.995 2°55.567 -999 -999 -999 -999 -999
2007-08-08 08:40:51 51°14.003 2°55.558 -999 -999 -999 -999 -999
2007-08-08 08:40:56 51°14.01 2°55.55 -999 -999 -999 -999 -999
2007-08-08 08:41:01 51°14.018 2°55.54 -999 -999 -999 -999 -999
2007-08-08 08:41:06 51°14.026 2°55.531 -999 -999 -999 -999 -999
2007-08-08 08:41:11 51°14.034 2°55.521 -999 -999 -999 -999 -999
2007-08-08 08:41:16 51°14.042 2°55.511 -999 -999 -999 -999 -999
2007-08-08 08:41:21 51°14.051 2°55.502 -999 -999 -999 -999 -999
2007-08-08 08:41:26 51°14.06 2°55.493 -999 -999 -999 -999 -999
2007-08-08 08:41:31 51°14.069 2°55.483 -999 -999 -999 -999 -999
2007-08-08 08:41:36 51°14.078 2°55.474 -999 -999 -999 -999 -999
2007-08-08 08:41:41 51°14.088 2°55.464 -999 -999 -999 -999 -999
2007-08-08 08:41:46 51°14.097 2°55.455 -999 -999 -999 -999 -999
2007-08-08 08:41:51 51°14.107 2°55.446 -999 -999 -999 -999 -999
2007-08-08 08:41:56 51°14.116 2°55.436 -999 -999 -999 -999 -999
2007-08-08 08:42:01 51°14.126 2°55.427 -999 -999 -999 -999 -999
2007-08-08 08:42:06 51°14.136 2°55.417 -999 -999 -999 -999 -999
2007-08-08 08:42:11 51°14.145 2°55.407 -999 -999 -999 -999 -999
2007-08-08 08:42:16 51°14.155 2°55.397 -999 -999 -999 -999 -999
2007-08-08 08:42:21 51°14.164 2°55.387 -999 -999 -999 -999 -999
2007-08-08 08:42:27 51°14.175 2°55.374 -999 -999 -999 -999 -999
2007-08-08 08:42:31 51°14.183 2°55.366 -999 -999 -999 -999 -999
2007-08-08 08:42:36 51°14.192 2°55.355 -999 -999 -999 -999 -999
2007-08-08 08:42:41 51°14.202 2°55.343 -999 -999 -999 -999 -999
2007-08-08 08:42:47 51°14.212 2°55.329 -999 -999 -999 -999 -999
2007-08-08 08:42:51 51°14.219 2°55.319 -999 -999 -999 -999 -999
2007-08-08 08:42:56 51°14.228 2°55.307 -999 -999 -999 -999 -999
2007-08-08 08:43:01 51°14.236 2°55.294 -999 -999 -999 -999 -999
2007-08-08 08:43:06 51°14.245 2°55.281 -999 -999 -999 -999 -999
2007-08-08 08:43:11 51°14.253 2°55.268 -999 -999 -999 -999 -999
2007-08-08 08:43:16 51°14.261 2°55.254 -999 -999 -999 -999 -999
2007-08-08 08:43:21 51°14.268 2°55.24 -999 -999 -999 -999 -999
2007-08-08 08:43:26 51°14.276 2°55.225 -999 -999 -999 -999 -999
2007-08-08 08:43:31 51°14.284 2°55.211 -999 -999 -999 -999 -999
2007-08-08 08:43:36 51°14.291 2°55.196 -999 -999 -999 -999 -999
2007-08-08 08:43:41 51°14.299 2°55.182 -999 -999 -999 -999 -999
2007-08-08 08:43:46 51°14.306 2°55.167 -999 -999 -999 -999 -999
2007-08-08 08:43:51 51°14.313 2°55.152 -999 -999 -999 -999 -999
2007-08-08 08:43:56 51°14.32 2°55.137 -999 -999 -999 -999 -999
2007-08-08 08:44:01 51°14.327 2°55.122 -999 -999 -999 -999 -999
2007-08-08 08:44:06 51°14.335 2°55.108 -999 -999 -999 -999 -999
2007-08-08 08:44:11 51°14.342 2°55.093 -999 -999 -999 -999 -999
2007-08-08 08:44:16 51°14.349 2°55.079 -999 -999 -999 -999 -999
2007-08-08 08:44:21 51°14.357 2°55.064 -999 -999 -999 -999 -999
2007-08-08 08:44:27 51°14.366 2°55.046 -999 -999 -999 -999 -999
2007-08-08 08:44:31 51°14.372 2°55.034 -999 -999 -999 -999 -999
2007-08-08 08:44:36 51°14.38 2°55.019 -999 -999 -999 -999 -999
2007-08-08 08:44:41 51°14.387 2°55.004 -999 -999 -999 -999 -999
2007-08-08 08:44:47 51°14.397 2°54.985 -999 -999 -999 -999 -999
2007-08-08 08:44:51 51°14.403 2°54.972 -999 -999 -999 -999 -999
2007-08-08 08:44:56 51°14.411 2°54.957 -999 -999 -999 -999 -999
2007-08-08 08:45:01 51°14.42 2°54.941 -999 -999 -999 -999 -999
2007-08-08 08:45:06 51°14.429 2°54.926 -999 -999 -999 -999 -999
2007-08-08 08:45:11 51°14.437 2°54.91 -999 -999 -999 -999 -999
2007-08-08 08:45:16 51°14.446 2°54.895 -999 -999 -999 -999 -999
2007-08-08 08:45:21 51°14.454 2°54.88 -999 -999 -999 -999 -999
2007-08-08 08:45:26 51°14.463 2°54.865 -999 -999 -999 -999 -999
2007-08-08 08:45:31 51°14.472 2°54.849 -999 -999 -999 -999 -999
2007-08-08 08:45:36 51°14.48 2°54.833 -999 -999 -999 -999 -999
2007-08-08 08:45:41 51°14.487 2°54.818 -999 -999 -999 -999 -999
2007-08-08 08:45:46 51°14.494 2°54.802 -999 -999 -999 -999 -999
2007-08-08 08:45:51 51°14.502 2°54.786 -999 -999 -999 -999 -999
2007-08-08 08:45:56 51°14.51 2°54.771 -999 -999 -999 -999 -999
2007-08-08 08:46:01 51°14.518 2°54.756 -999 -999 -999 -999 -999
2007-08-08 08:46:06 51°14.526 2°54.74 -999 -999 -999 -999 -999
2007-08-08 08:46:11 51°14.535 2°54.726 -999 -999 -999 -999 -999
2007-08-08 08:46:16 51°14.543 2°54.711 -999 -999 -999 -999 -999
2007-08-08 08:46:21 51°14.551 2°54.696 -999 -999 -999 -999 -999
2007-08-08 08:46:26 51°14.559 2°54.682 -999 -999 -999 -999 -999
2007-08-08 08:46:31 51°14.568 2°54.667 -999 -999 -999 -999 -999
2007-08-08 08:46:36 51°14.575 2°54.651 -999 -999 -999 -999 -999
2007-08-08 08:46:41 51°14.583 2°54.636 -999 -999 -999 -999 -999
2007-08-08 08:46:47 51°14.592 2°54.617 -999 -999 -999 -999 -999
2007-08-08 08:46:51 51°14.598 2°54.604 -999 -999 -999 -999 -999
2007-08-08 08:46:56 51°14.606 2°54.588 -999 -999 -999 -999 -999
2007-08-08 08:47:01 51°14.613 2°54.571 -999 -999 -999 -999 -999
2007-08-08 08:47:06 51°14.62 2°54.555 -999 -999 -999 -999 -999
2007-08-08 08:47:11 51°14.627 2°54.539 -999 -999 -999 -999 -999
2007-08-08 08:47:16 51°14.634 2°54.522 -999 -999 -999 -999 -999
2007-08-08 08:47:21 51°14.641 2°54.506 -999 -999 -999 -999 -999
2007-08-08 08:47:26 51°14.647 2°54.489 -999 -999 -999 -999 -999
2007-08-08 08:47:31 51°14.654 2°54.471 -999 -999 -999 -999 -999
2007-08-08 08:47:36 51°14.66 2°54.453 -999 -999 -999 -999 -999
2007-08-08 08:47:41 51°14.666 2°54.434 -999 -999 -999 -999 -999
2007-08-08 08:47:46 51°14.672 2°54.414 -999 -999 -999 -999 -999
2007-08-08 08:47:51 51°14.677 2°54.395 -999 -999 -999 -999 -999
2007-08-08 08:47:56 51°14.683 2°54.375 -999 -999 -999 -999 -999
2007-08-08 08:48:01 51°14.689 2°54.354 -999 -999 -999 -999 -999
2007-08-08 08:48:06 51°14.694 2°54.333 -999 -999 -999 -999 -999
2007-08-08 08:48:11 51°14.7 2°54.312 -999 -999 -999 -999 -999
2007-08-08 08:48:16 51°14.706 2°54.291 -999 -999 -999 -999 -999
2007-08-08 08:48:21 51°14.712 2°54.269 -999 -999 -999 -999 -999
2007-08-08 08:48:26 51°14.717 2°54.248 -999 -999 -999 -999 -999
2007-08-08 08:48:31 51°14.723 2°54.227 -999 -999 -999 -999 -999
2007-08-08 08:48:36 51°14.728 2°54.205 -999 -999 -999 -999 -999
2007-08-08 08:48:41 51°14.735 2°54.184 -999 -999 -999 -999 -999
2007-08-08 08:48:47 51°14.742 2°54.158 -999 -999 -999 -999 -999
2007-08-08 08:48:51 51°14.747 2°54.141 -999 -999 -999 -999 -999
2007-08-08 08:48:56 51°14.754 2°54.118 -999 -999 -999 -999 -999
2007-08-08 08:49:01 51°14.76 2°54.095 -999 -999 -999 -999 -999
2007-08-08 08:49:07 51°14.769 2°54.067 -999 -999 -999 -999 -999
2007-08-08 08:49:11 51°14.774 2°54.048 -999 -999 -999 -999 -999
2007-08-08 08:49:16 51°14.78 2°54.025 -999 -999 -999 -999 -999
2007-08-08 08:49:21 51°14.787 2°54 -999 -999 -999 -999 -999
2007-08-08 08:49:27 51°14.795 2°53.972 -999 -999 -999 -999 -999
2007-08-08 08:49:31 51°14.8 2°53.952 -999 -999 -999 -999 -999
2007-08-08 08:49:36 51°14.807 2°53.928 -999 -999 -999 -999 -999
2007-08-08 08:49:41 51°14.814 2°53.904 -999 -999 -999 -999 -999
2007-08-08 08:49:46 51°14.821 2°53.879 -999 -999 -999 -999 -999
2007-08-08 08:49:51 51°14.828 2°53.855 -999 -999 -999 -999 -999
2007-08-08 08:49:56 51°14.835 2°53.83 -999 -999 -999 -999 -999
2007-08-08 08:50:01 51°14.842 2°53.805 -999 -999 -999 -999 -999
2007-08-08 08:50:06 51°14.849 2°53.781 -999 -999 -999 -999 -999
2007-08-08 08:50:11 51°14.856 2°53.756 -999 -999 -999 -999 -999
2007-08-08 08:50:16 51°14.863 2°53.731 -999 -999 -999 -999 -999
2007-08-08 08:50:21 51°14.87 2°53.707 -999 -999 -999 -999 -999
2007-08-08 08:50:26 51°14.877 2°53.682 -999 -999 -999 -999 -999
2007-08-08 08:50:31 51°14.884 2°53.657 -999 -999 -999 -999 -999
2007-08-08 08:50:36 51°14.892 2°53.633 -999 -999 -999 -999 -999
2007-08-08 08:50:41 51°14.899 2°53.608 -999 -999 -999 -999 -999
2007-08-08 08:50:46 51°14.906 2°53.583 -999 -999 -999 -999 -999
2007-08-08 08:50:51 51°14.914 2°53.558 -999 -999 -999 -999 -999
2007-08-08 08:50:56 51°14.921 2°53.533 -999 -999 -999 -999 -999
2007-08-08 08:51:01 51°14.928 2°53.508 -999 -999 -999 -999 -999
2007-08-08 08:51:07 51°14.937 2°53.478 -999 -999 -999 -999 -999
2007-08-08 08:51:11 51°14.943 2°53.458 -999 -999 -999 -999 -999
2007-08-08 08:51:16 51°14.95 2°53.433 -999 -999 -999 -999 -999
2007-08-08 08:51:21 51°14.957 2°53.408 -999 -999 -999 -999 -999
2007-08-08 08:51:27 51°14.966 2°53.379 -999 -999 -999 -999 -999
2007-08-08 08:51:31 51°14.972 2°53.359 -999 -999 -999 -999 -999
2007-08-08 08:51:36 51°14.979 2°53.334 -999 -999 -999 -999 -999
2007-08-08 08:51:41 51°14.986 2°53.309 -999 -999 -999 -999 -999
2007-08-08 08:51:46 51°14.993 2°53.284 -999 -999 -999 -999 -999
2007-08-08 08:51:51 51°14.999 2°53.258 -999 -999 -999 -999 -999
2007-08-08 08:51:56 51°15.005 2°53.233 -999 -999 -999 -999 -999
2007-08-08 08:52:01 51°15.011 2°53.207 -999 -999 -999 -999 -999
2007-08-08 08:52:06 51°15.017 2°53.181 -999 -999 -999 -999 -999
2007-08-08 08:52:11 51°15.023 2°53.157 -999 -999 -999 -999 -999
2007-08-08 08:52:16 51°15.029 2°53.131 -999 -999 -999 -999 -999
2007-08-08 08:52:21 51°15.035 2°53.106 -999 -999 -999 -999 -999
2007-08-08 08:52:26 51°15.041 2°53.081 -999 -999 -999 -999 -999
2007-08-08 08:52:31 51°15.047 2°53.056 -999 -999 -999 -999 -999
2007-08-08 08:52:36 51°15.054 2°53.031 -999 -999 -999 -999 -999
2007-08-08 08:52:41 51°15.06 2°53.005 -999 -999 -999 -999 -999
2007-08-08 08:52:46 51°15.066 2°52.98 -999 -999 -999 -999 -999
2007-08-08 08:52:51 51°15.072 2°52.955 -999 -999 -999 -999 -999
2007-08-08 08:52:56 51°15.079 2°52.93 -999 -999 -999 -999 -999
2007-08-08 08:53:01 51°15.084 2°52.904 -999 -999 -999 -999 -999
2007-08-08 08:53:07 51°15.092 2°52.874 -999 -999 -999 -999 -999
2007-08-08 08:53:11 51°15.097 2°52.853 -999 -999 -999 -999 -999
2007-08-08 08:53:16 51°15.103 2°52.828 -999 -999 -999 -999 -999
2007-08-08 08:53:21 51°15.109 2°52.802 -999 -999 -999 -999 -999
2007-08-08 08:53:27 51°15.117 2°52.772 -999 -999 -999 -999 -999
2007-08-08 08:53:31 51°15.121 2°52.751 -999 -999 -999 -999 -999
2007-08-08 08:53:36 51°15.127 2°52.725 -999 -999 -999 -999 -999
2007-08-08 08:53:41 51°15.133 2°52.7 -999 -999 -999 -999 -999
2007-08-08 08:53:46 51°15.14 2°52.675 -999 -999 -999 -999 -999
2007-08-08 08:53:51 51°15.146 2°52.649 -999 -999 -999 -999 -999
2007-08-08 08:53:56 51°15.152 2°52.624 -999 -999 -999 -999 -999
2007-08-08 08:54:01 51°15.158 2°52.598 -999 -999 -999 -999 -999
2007-08-08 08:54:07 51°15.166 2°52.568 -999 -999 -999 -999 -999
2007-08-08 08:54:11 51°15.171 2°52.548 -999 -999 -999 -999 -999
2007-08-08 08:54:16 51°15.177 2°52.523 -999 -999 -999 -999 -999
2007-08-08 08:54:21 51°15.183 2°52.497 -999 -999 -999 -999 -999
2007-08-08 08:54:26 51°15.189 2°52.472 -999 -999 -999 -999 -999
2007-08-08 08:54:31 51°15.195 2°52.447 -999 -999 -999 -999 -999
2007-08-08 08:54:36 51°15.201 2°52.422 -999 -999 -999 -999 -999
2007-08-08 08:54:41 51°15.208 2°52.397 -999 -999 -999 -999 -999
2007-08-08 08:54:46 51°15.214 2°52.371 -999 -999 -999 -999 -999
2007-08-08 08:54:51 51°15.221 2°52.346 -999 -999 -999 -999 -999
2007-08-08 08:54:56 51°15.226 2°52.321 -999 -999 -999 -999 -999
2007-08-08 08:55:01 51°15.233 2°52.296 -999 -999 -999 -999 -999
2007-08-08 08:55:06 51°15.239 2°52.271 -999 -999 -999 -999 -999
2007-08-08 08:55:11 51°15.245 2°52.246 -999 -999 -999 -999 -999
2007-08-08 08:55:16 51°15.251 2°52.221 -999 -999 -999 -999 -999
2007-08-08 08:55:21 51°15.257 2°52.195 -999 -999 -999 -999 -999
2007-08-08 08:55:27 51°15.264 2°52.165 -999 -999 -999 -999 -999
2007-08-08 08:55:31 51°15.267 2°52.144 -999 -999 -999 -999 -999
2007-08-08 08:55:36 51°15.271 2°52.118 -999 -999 -999 -999 -999
2007-08-08 08:55:41 51°15.275 2°52.091 -999 -999 -999 -999 -999
2007-08-08 08:55:46 51°15.278 2°52.065 -999 -999 -999 -999 -999
2007-08-08 08:55:51 51°15.281 2°52.038 -999 -999 -999 -999 -999
2007-08-08 08:55:56 51°15.285 2°52.012 -999 -999 -999 -999 -999
2007-08-08 08:56:01 51°15.287 2°51.985 -999 -999 -999 -999 -999
2007-08-08 08:56:07 51°15.29 2°51.953 -999 -999 -999 -999 -999
2007-08-08 08:56:11 51°15.292 2°51.932 -999 -999 -999 -999 -999
2007-08-08 08:56:16 51°15.294 2°51.905 -999 -999 -999 -999 -999
2007-08-08 08:56:21 51°15.297 2°51.878 -999 -999 -999 -999 -999
2007-08-08 08:56:26 51°15.3 2°51.851 -999 -999 -999 -999 -999
2007-08-08 08:56:31 51°15.303 2°51.824 -999 -999 -999 -999 -999
2007-08-08 08:56:36 51°15.306 2°51.798 -999 -999 -999 -999 -999
2007-08-08 08:56:41 51°15.309 2°51.771 -999 -999 -999 -999 -999
2007-08-08 08:56:46 51°15.312 2°51.744 -999 -999 -999 -999 -999
2007-08-08 08:56:51 51°15.316 2°51.717 -999 -999 -999 -999 -999
2007-08-08 08:56:56 51°15.318 2°51.691 -999 -999 -999 -999 -999
2007-08-08 08:57:01 51°15.321 2°51.664 -999 -999 -999 -999 -999
2007-08-08 08:57:06 51°15.324 2°51.638 -999 -999 -999 -999 -999
2007-08-08 08:57:11 51°15.327 2°51.611 -999 -999 -999 -999 -999
2007-08-08 08:57:16 51°15.329 2°51.585 -999 -999 -999 -999 -999
2007-08-08 08:57:21 51°15.333 2°51.558 -999 -999 -999 -999 -999
2007-08-08 08:57:27 51°15.336 2°51.526 -999 -999 -999 -999 -999
2007-08-08 08:57:31 51°15.339 2°51.505 -999 -999 -999 -999 -999
2007-08-08 08:57:36 51°15.341 2°51.478 -999 -999 -999 -999 -999
2007-08-08 08:57:41 51°15.345 2°51.451 -999 -999 -999 -999 -999
2007-08-08 08:57:46 51°15.348 2°51.425 -999 -999 -999 -999 -999
2007-08-08 08:57:51 51°15.351 2°51.398 -999 -999 -999 -999 -999
2007-08-08 08:57:56 51°15.354 2°51.372 -999 -999 -999 -999 -999
2007-08-08 08:58:01 51°15.357 2°51.345 -999 -999 -999 -999 -999
2007-08-08 08:58:06 51°15.36 2°51.319 -999 -999 -999 -999 -999
2007-08-08 08:58:11 51°15.363 2°51.292 -999 -999 -999 -999 -999
2007-08-08 08:58:16 51°15.366 2°51.266 -999 -999 -999 -999 -999
2007-08-08 08:58:21 51°15.369 2°51.239 -999 -999 -999 -999 -999
2007-08-08 08:58:27 51°15.373 2°51.207 -999 -999 -999 -999 -999
2007-08-08 08:58:31 51°15.375 2°51.186 -999 -999 -999 -999 -999
2007-08-08 08:58:36 51°15.378 2°51.159 -999 -999 -999 -999 -999
2007-08-08 08:58:41 51°15.381 2°51.133 -999 -999 -999 -999 -999
2007-08-08 08:58:46 51°15.384 2°51.107 -999 -999 -999 -999 -999
2007-08-08 08:58:51 51°15.387 2°51.08 -999 -999 -999 -999 -999
2007-08-08 08:58:56 51°15.39 2°51.054 -999 -999 -999 -999 -999
2007-08-08 08:59:01 51°15.392 2°51.027 -999 -999 -999 -999 -999
2007-08-08 08:59:06 51°15.396 2°51.001 -999 -999 -999 -999 -999
2007-08-08 08:59:11 51°15.399 2°50.974 -999 -999 -999 -999 -999
2007-08-08 08:59:16 51°15.402 2°50.948 -999 -999 -999 -999 -999
2007-08-08 08:59:21 51°15.405 2°50.921 -999 -999 -999 -999 -999
2007-08-08 08:59:26 51°15.408 2°50.894 -999 -999 -999 -999 -999
2007-08-08 08:59:31 51°15.411 2°50.868 -999 -999 -999 -999 -999
2007-08-08 08:59:36 51°15.415 2°50.842 -999 -999 -999 -999 -999
2007-08-08 08:59:41 51°15.417 2°50.815 -999 -999 -999 -999 -999
2007-08-08 08:59:46 51°15.421 2°50.789 -999 -999 -999 -999 -999
2007-08-08 08:59:51 51°15.424 2°50.762 -999 -999 -999 -999 -999
2007-08-08 08:59:56 51°15.428 2°50.736 -999 -999 -999 -999 -999
2007-08-08 09:00:01 51°15.431 2°50.709 -999 -999 -999 -999 -999
2007-08-08 09:00:06 51°15.434 2°50.683 -999 -999 -999 -999 -999
2007-08-08 09:00:11 51°15.438 2°50.656 -999 -999 -999 -999 -999
2007-08-08 09:00:16 51°15.441 2°50.629 -999 -999 -999 -999 -999
2007-08-08 09:00:21 51°15.444 2°50.603 -999 -999 -999 -999 -999
2007-08-08 09:00:27 51°15.448 2°50.571 -999 -999 -999 -999 -999
2007-08-08 09:00:31 51°15.45 2°50.549 -999 -999 -999 -999 -999
2007-08-08 09:00:36 51°15.453 2°50.523 -999 -999 -999 -999 -999
2007-08-08 09:00:41 51°15.457 2°50.496 -999 -999 -999 -999 -999
2007-08-08 09:00:46 51°15.46 2°50.469 -999 -999 -999 -999 -999
2007-08-08 09:00:51 51°15.463 2°50.443 -999 -999 -999 -999 -999
2007-08-08 09:00:56 51°15.466 2°50.416 -999 -999 -999 -999 -999
2007-08-08 09:01:01 51°15.47 2°50.39 -999 -999 -999 -999 -999
2007-08-08 09:01:06 51°15.473 2°50.363 -999 -999 -999 -999 -999
2007-08-08 09:01:11 51°15.476 2°50.336 -999 -999 -999 -999 -999
2007-08-08 09:01:16 51°15.479 2°50.31 -999 -999 -999 -999 -999
2007-08-08 09:01:21 51°15.483 2°50.283 -999 -999 -999 -999 -999
2007-08-08 09:01:26 51°15.486 2°50.256 -999 -999 -999 -999 -999
2007-08-08 09:01:31 51°15.489 2°50.23 -999 -999 -999 -999 -999
2007-08-08 09:01:36 51°15.492 2°50.203 -999 -999 -999 -999 -999
2007-08-08 09:01:41 51°15.495 2°50.176 -999 -999 -999 -999 -999
2007-08-08 09:01:46 51°15.498 2°50.15 -999 -999 -999 -999 -999
2007-08-08 09:01:51 51°15.502 2°50.123 -999 -999 -999 -999 -999
2007-08-08 09:01:56 51°15.505 2°50.096 -999 -999 -999 -999 -999
2007-08-08 09:02:01 51°15.509 2°50.07 -999 -999 -999 -999 -999
2007-08-08 09:02:06 51°15.512 2°50.043 -999 -999 -999 -999 -999
2007-08-08 09:02:11 51°15.515 2°50.016 -999 -999 -999 -999 -999
2007-08-08 09:02:16 51°15.519 2°49.989 -999 -999 -999 -999 -999
2007-08-08 09:02:22 51°15.523 2°49.957 -999 -999 -999 -999 -999
2007-08-08 09:02:26 51°15.526 2°49.936 -999 -999 -999 -999 -999
2007-08-08 09:02:31 51°15.53 2°49.909 -999 -999 -999 -999 -999
2007-08-08 09:02:36 51°15.534 2°49.882 -999 -999 -999 -999 -999
2007-08-08 09:02:41 51°15.537 2°49.856 -999 -999 -999 -999 -999
2007-08-08 09:02:47 51°15.541 2°49.823 -999 -999 -999 -999 -999
2007-08-08 09:02:51 51°15.543 2°49.802 -999 -999 -999 -999 -999
2007-08-08 09:02:56 51°15.547 2°49.775 -999 -999 -999 -999 -999
2007-08-08 09:03:01 51°15.55 2°49.748 -999 -999 -999 -999 -999
2007-08-08 09:03:06 51°15.554 2°49.722 -999 -999 -999 -999 -999
2007-08-08 09:03:11 51°15.557 2°49.695 -999 -999 -999 -999 -999
2007-08-08 09:03:16 51°15.56 2°49.668 -999 -999 -999 -999 -999
2007-08-08 09:03:21 51°15.564 2°49.642 -999 -999 -999 -999 -999
2007-08-08 09:03:26 51°15.567 2°49.615 -999 -999 -999 -999 -999
2007-08-08 09:03:31 51°15.571 2°49.588 -999 -999 -999 -999 -999
2007-08-08 09:03:36 51°15.574 2°49.562 -999 -999 -999 -999 -999
2007-08-08 09:03:41 51°15.577 2°49.535 -999 -999 -999 -999 -999
2007-08-08 09:03:46 51°15.58 2°49.508 -999 -999 -999 -999 -999
2007-08-08 09:03:51 51°15.583 2°49.481 -999 -999 -999 -999 -999
2007-08-08 09:03:56 51°15.585 2°49.455 -999 -999 -999 -999 -999
2007-08-08 09:04:01 51°15.589 2°49.428 -999 -999 -999 -999 -999
2007-08-08 09:04:06 51°15.591 2°49.401 -999 -999 -999 -999 -999
2007-08-08 09:04:11 51°15.594 2°49.374 -999 -999 -999 -999 -999
2007-08-08 09:04:16 51°15.598 2°49.348 -999 -999 -999 -999 -999
2007-08-08 09:04:21 51°15.602 2°49.321 -999 -999 -999 -999 -999
2007-08-08 09:04:26 51°15.605 2°49.295 -999 -999 -999 -999 -999
2007-08-08 09:04:31 51°15.608 2°49.268 -999 -999 -999 -999 -999
2007-08-08 09:04:36 51°15.612 2°49.242 -999 -999 -999 -999 -999
2007-08-08 09:04:41 51°15.615 2°49.215 -999 -999 -999 -999 -999
2007-08-08 09:04:47 51°15.619 2°49.183 -999 -999 -999 -999 -999
2007-08-08 09:04:51 51°15.622 2°49.162 -999 -999 -999 -999 -999
2007-08-08 09:04:56 51°15.625 2°49.136 -999 -999 -999 -999 -999
2007-08-08 09:05:01 51°15.629 2°49.109 -999 -999 -999 -999 -999
2007-08-08 09:05:07 51°15.633 2°49.078 -999 -999 -999 -999 -999
2007-08-08 09:05:11 51°15.634 2°49.057 -999 -999 -999 -999 -999
2007-08-08 09:05:16 51°15.637 2°49.03 -999 -999 -999 -999 -999
2007-08-08 09:05:21 51°15.641 2°49.004 -999 -999 -999 -999 -999
2007-08-08 09:05:26 51°15.644 2°48.978 -999 -999 -999 -999 -999
2007-08-08 09:05:31 51°15.648 2°48.951 -999 -999 -999 -999 -999
2007-08-08 09:05:36 51°15.651 2°48.925 -999 -999 -999 -999 -999
2007-08-08 09:05:41 51°15.654 2°48.898 -999 -999 -999 -999 -999
2007-08-08 09:05:46 51°15.656 2°48.872 -999 -999 -999 -999 -999
2007-08-08 09:05:51 51°15.66 2°48.845 -999 -999 -999 -999 -999
2007-08-08 09:05:56 51°15.663 2°48.819 -999 -999 -999 -999 -999
2007-08-08 09:06:01 51°15.667 2°48.792 -999 -999 -999 -999 -999
2007-08-08 09:06:06 51°15.67 2°48.765 -999 -999 -999 -999 -999
2007-08-08 09:06:11 51°15.674 2°48.739 -999 -999 -999 -999 -999
2007-08-08 09:06:16 51°15.677 2°48.712 -999 -999 -999 -999 -999
2007-08-08 09:06:21 51°15.68 2°48.685 -999 -999 -999 -999 -999
2007-08-08 09:06:26 51°15.684 2°48.659 -999 -999 -999 -999 -999
2007-08-08 09:06:31 51°15.687 2°48.632 -999 -999 -999 -999 -999
2007-08-08 09:06:36 51°15.69 2°48.605 -999 -999 -999 -999 -999
2007-08-08 09:06:41 51°15.694 2°48.578 -999 -999 -999 -999 -999
2007-08-08 09:06:47 51°15.698 2°48.546 -999 -999 -999 -999 -999
2007-08-08 09:06:51 51°15.701 2°48.524 -999 -999 -999 -999 -999
2007-08-08 09:06:56 51°15.705 2°48.497 -999 -999 -999 -999 -999
2007-08-08 09:07:01 51°15.708 2°48.47 -999 -999 -999 -999 -999
2007-08-08 09:07:07 51°15.713 2°48.438 -999 -999 -999 -999 -999
2007-08-08 09:07:11 51°15.715 2°48.416 -999 -999 -999 -999 -999
2007-08-08 09:07:16 51°15.719 2°48.39 -999 -999 -999 -999 -999
2007-08-08 09:07:21 51°15.722 2°48.363 -999 -999 -999 -999 -999
2007-08-08 09:07:27 51°15.727 2°48.331 -999 -999 -999 -999 -999
2007-08-08 09:07:31 51°15.729 2°48.309 -999 -999 -999 -999 -999
2007-08-08 09:07:36 51°15.733 2°48.282 -999 -999 -999 -999 -999
2007-08-08 09:07:41 51°15.736 2°48.255 -999 -999 -999 -999 -999
2007-08-08 09:07:46 51°15.74 2°48.229 -999 -999 -999 -999 -999
2007-08-08 09:07:51 51°15.744 2°48.202 -999 -999 -999 -999 -999
2007-08-08 09:07:56 51°15.748 2°48.175 -999 -999 -999 -999 -999
2007-08-08 09:08:01 51°15.753 2°48.149 -999 -999 -999 -999 -999
2007-08-08 09:08:06 51°15.757 2°48.122 -999 -999 -999 -999 -999
2007-08-08 09:08:11 51°15.761 2°48.096 -999 -999 -999 -999 -999
2007-08-08 09:08:16 51°15.766 2°48.069 -999 -999 -999 -999 -999
2007-08-08 09:08:21 51°15.77 2°48.043 -999 -999 -999 -999 -999
2007-08-08 09:08:26 51°15.775 2°48.017 -999 -999 -999 -999 -999
2007-08-08 09:08:31 51°15.78 2°47.991 -999 -999 -999 -999 -999
2007-08-08 09:08:36 51°15.784 2°47.965 -999 -999 -999 -999 -999
2007-08-08 09:08:41 51°15.788 2°47.938 -999 -999 -999 -999 -999
2007-08-08 09:08:46 51°15.793 2°47.913 -999 -999 -999 -999 -999
2007-08-08 09:08:51 51°15.796 2°47.886 -999 -999 -999 -999 -999
2007-08-08 09:08:56 51°15.8 2°47.86 -999 -999 -999 -999 -999
2007-08-08 09:09:01 51°15.804 2°47.833 -999 -999 -999 -999 -999
2007-08-08 09:09:07 51°15.81 2°47.803 -999 -999 -999 -999 -999
2007-08-08 09:09:11 51°15.813 2°47.782 -999 -999 -999 -999 -999
2007-08-08 09:09:16 51°15.819 2°47.757 -999 -999 -999 -999 -999
2007-08-08 09:09:21 51°15.824 2°47.732 -999 -999 -999 -999 -999
2007-08-08 09:09:27 51°15.831 2°47.702 -999 -999 -999 -999 -999
2007-08-08 09:09:31 51°15.835 2°47.681 -999 -999 -999 -999 -999
2007-08-08 09:09:36 51°15.839 2°47.655 -999 -999 -999 -999 -999
2007-08-08 09:09:42 51°15.843 2°47.624 -999 -999 -999 -999 -999
2007-08-08 09:09:47 51°15.847 2°47.598 -999 -999 -999 -999 -999
2007-08-08 09:09:51 51°15.848 2°47.577 -999 -999 -999 -999 -999
2007-08-08 09:09:56 51°15.851 2°47.55 -999 -999 -999 -999 -999
2007-08-08 09:10:01 51°15.853 2°47.524 -999 -999 -999 -999 -999
2007-08-08 09:10:06 51°15.856 2°47.497 -999 -999 -999 -999 -999
2007-08-08 09:10:11 51°15.858 2°47.471 -999 -999 -999 -999 -999
2007-08-08 09:10:16 51°15.86 2°47.444 -999 -999 -999 -999 -999
2007-08-08 09:10:21 51°15.862 2°47.417 -999 -999 -999 -999 -999
2007-08-08 09:10:26 51°15.865 2°47.391 -999 -999 -999 -999 -999
2007-08-08 09:10:31 51°15.867 2°47.364 -999 -999 -999 -999 -999
2007-08-08 09:10:36 51°15.869 2°47.338 -999 -999 -999 -999 -999
2007-08-08 09:10:41 51°15.871 2°47.312 -999 -999 -999 -999 -999
2007-08-08 09:10:46 51°15.874 2°47.285 -999 -999 -999 -999 -999
2007-08-08 09:10:51 51°15.875 2°47.259 -999 -999 -999 -999 -999
2007-08-08 09:10:56 51°15.878 2°47.232 -999 -999 -999 -999 -999
2007-08-08 09:11:01 51°15.879 2°47.206 -999 -999 -999 -999 -999
2007-08-08 09:11:07 51°15.882 2°47.174 -999 -999 -999 -999 -999
2007-08-08 09:11:11 51°15.883 2°47.153 -999 -999 -999 -999 -999
2007-08-08 09:11:16 51°15.885 2°47.127 -999 -999 -999 -999 -999
2007-08-08 09:11:21 51°15.888 2°47.1 -999 -999 -999 -999 -999
2007-08-08 09:11:27 51°15.891 2°47.068 -999 -999 -999 -999 -999
2007-08-08 09:11:31 51°15.892 2°47.047 -999 -999 -999 -999 -999
2007-08-08 09:11:36 51°15.895 2°47.02 -999 -999 -999 -999 -999
2007-08-08 09:11:41 51°15.896 2°46.993 -999 -999 -999 -999 -999
2007-08-08 09:11:46 51°15.9 2°46.967 -999 -999 -999 -999 -999
2007-08-08 09:11:51 51°15.902 2°46.94 -999 -999 -999 -999 -999
2007-08-08 09:11:56 51°15.904 2°46.914 -999 -999 -999 -999 -999
2007-08-08 09:12:01 51°15.907 2°46.887 -999 -999 -999 -999 -999
2007-08-08 09:12:07 51°15.91 2°46.855 -999 -999 -999 -999 -999
2007-08-08 09:12:11 51°15.912 2°46.834 -999 -999 -999 -999 -999
2007-08-08 09:12:16 51°15.914 2°46.808 -999 -999 -999 -999 -999
2007-08-08 09:12:21 51°15.917 2°46.781 -999 -999 -999 -999 -999
2007-08-08 09:12:26 51°15.919 2°46.755 -999 -999 -999 -999 -999
2007-08-08 09:12:31 51°15.924 2°46.729 -999 -999 -999 -999 -999
2007-08-08 09:12:36 51°15.927 2°46.703 -999 -999 -999 -999 -999
2007-08-08 09:12:41 51°15.931 2°46.678 -999 -999 -999 -999 -999
2007-08-08 09:12:46 51°15.937 2°46.653 -999 -999 -999 -999 -999
2007-08-08 09:12:51 51°15.942 2°46.627 -999 -999 -999 -999 -999
2007-08-08 09:12:56 51°15.947 2°46.601 -999 -999 -999 -999 -999
2007-08-08 09:13:01 51°15.953 2°46.576 -999 -999 -999 -999 -999
2007-08-08 09:13:06 51°15.958 2°46.551 -999 -999 -999 -999 -999
2007-08-08 09:13:11 51°15.964 2°46.526 -999 -999 -999 -999 -999
2007-08-08 09:13:16 51°15.97 2°46.501 -999 -999 -999 -999 -999
2007-08-08 09:13:21 51°15.977 2°46.476 -999 -999 -999 -999 -999
2007-08-08 09:13:27 51°15.984 2°46.446 -999 -999 -999 -999 -999
2007-08-08 09:13:31 51°15.99 2°46.427 -999 -999 -999 -999 -999
2007-08-08 09:13:36 51°15.996 2°46.401 -999 -999 -999 -999 -999
2007-08-08 09:13:41 51°16.003 2°46.378 -999 -999 -999 -999 -999
2007-08-08 09:13:46 51°16.01 2°46.353 -999 -999 -999 -999 -999
2007-08-08 09:13:51 51°16.017 2°46.329 -999 -999 -999 -999 -999
2007-08-08 09:13:56 51°16.024 2°46.305 -999 -999 -999 -999 -999
2007-08-08 09:14:01 51°16.031 2°46.28 -999 -999 -999 -999 -999
2007-08-08 09:14:07 51°16.039 2°46.25 -999 -999 -999 -999 -999
2007-08-08 09:14:11 51°16.045 2°46.231 -999 -999 -999 -999 -999
2007-08-08 09:14:16 51°16.051 2°46.207 -999 -999 -999 -999 -999
2007-08-08 09:14:21 51°16.058 2°46.182 -999 -999 -999 -999 -999
2007-08-08 09:14:27 51°16.067 2°46.153 -999 -999 -999 -999 -999
2007-08-08 09:14:31 51°16.072 2°46.134 -999 -999 -999 -999 -999
2007-08-08 09:14:36 51°16.079 2°46.109 -999 -999 -999 -999 -999
2007-08-08 09:14:41 51°16.086 2°46.085 -999 -999 -999 -999 -999
2007-08-08 09:14:47 51°16.094 2°46.056 -999 -999 -999 -999 -999
2007-08-08 09:14:51 51°16.1 2°46.037 -999 -999 -999 -999 -999
2007-08-08 09:14:56 51°16.107 2°46.012 -999 -999 -999 -999 -999
2007-08-08 09:15:01 51°16.114 2°45.987 -999 -999 -999 -999 -999
2007-08-08 09:15:06 51°16.121 2°45.963 -999 -999 -999 -999 -999
2007-08-08 09:15:11 51°16.128 2°45.939 -999 -999 -999 -999 -999
2007-08-08 09:15:16 51°16.134 2°45.914 -999 -999 -999 -999 -999
2007-08-08 09:15:21 51°16.141 2°45.889 -999 -999 -999 -999 -999
2007-08-08 09:15:27 51°16.149 2°45.859 -999 -999 -999 -999 -999
2007-08-08 09:15:31 51°16.154 2°45.839 -999 -999 -999 -999 -999
2007-08-08 09:15:36 51°16.161 2°45.814 -999 -999 -999 -999 -999
2007-08-08 09:15:41 51°16.168 2°45.789 -999 -999 -999 -999 -999
2007-08-08 09:15:46 51°16.175 2°45.764 -999 -999 -999 -999 -999
2007-08-08 09:15:51 51°16.182 2°45.74 -999 -999 -999 -999 -999
2007-08-08 09:15:56 51°16.19 2°45.715 -999 -999 -999 -999 -999
2007-08-08 09:16:02 51°16.199 2°45.686 -999 -999 -999 -999 -999
2007-08-08 09:16:06 51°16.206 2°45.667 -999 -999 -999 -999 -999
2007-08-08 09:16:11 51°16.214 2°45.643 -999 -999 -999 -999 -999
2007-08-08 09:16:16 51°16.223 2°45.619 -999 -999 -999 -999 -999
2007-08-08 09:16:21 51°16.231 2°45.595 -999 -999 -999 -999 -999
2007-08-08 09:16:27 51°16.242 2°45.567 -999 -999 -999 -999 -999
2007-08-08 09:16:31 51°16.248 2°45.548 -999 -999 -999 -999 -999
2007-08-08 09:16:36 51°16.257 2°45.524 -999 -999 -999 -999 -999
2007-08-08 09:16:41 51°16.266 2°45.5 -999 -999 -999 -999 -999
2007-08-08 09:16:47 51°16.275 2°45.471 -999 -999 -999 -999 -999
2007-08-08 09:16:51 51°16.283 2°45.452 -999 -999 -999 -999 -999
2007-08-08 09:16:56 51°16.291 2°45.428 -999 -999 -999 -999 -999
2007-08-08 09:17:01 51°16.3 2°45.405 -999 -999 -999 -999 -999
2007-08-08 09:17:06 51°16.308 2°45.38 -999 -999 -999 -999 -999
2007-08-08 09:17:11 51°16.317 2°45.356 -999 -999 -999 -999 -999
2007-08-08 09:17:16 51°16.326 2°45.332 -999 -999 -999 -999 -999
2007-08-08 09:17:21 51°16.335 2°45.308 -999 -999 -999 -999 -999
2007-08-08 09:17:26 51°16.344 2°45.285 -999 -999 -999 -999 -999
2007-08-08 09:17:31 51°16.352 2°45.26 -999 -999 -999 -999 -999
2007-08-08 09:17:36 51°16.362 2°45.237 -999 -999 -999 -999 -999
2007-08-08 09:17:41 51°16.371 2°45.212 -999 -999 -999 -999 -999
2007-08-08 09:17:46 51°16.38 2°45.189 -999 -999 -999 -999 -999
2007-08-08 09:17:51 51°16.388 2°45.164 -999 -999 -999 -999 -999
2007-08-08 09:17:56 51°16.397 2°45.141 -999 -999 -999 -999 -999
2007-08-08 09:18:01 51°16.406 2°45.116 -999 -999 -999 -999 -999
2007-08-08 09:18:06 51°16.414 2°45.092 -999 -999 -999 -999 -999
2007-08-08 09:18:11 51°16.423 2°45.068 -999 -999 -999 -999 -999
2007-08-08 09:18:16 51°16.433 2°45.045 -999 -999 -999 -999 -999
2007-08-08 09:18:22 51°16.444 2°45.017 -999 -999 -999 -999 -999
2007-08-08 09:18:27 51°16.454 2°44.994 -999 -999 -999 -999 -999
2007-08-08 09:18:31 51°16.462 2°44.975 -999 -999 -999 -999 -999
2007-08-08 09:18:36 51°16.471 2°44.952 -999 -999 -999 -999 -999
2007-08-08 09:18:41 51°16.481 2°44.928 -999 -999 -999 -999 -999
2007-08-08 09:18:47 51°16.492 2°44.901 -999 -999 -999 -999 -999
2007-08-08 09:18:51 51°16.5 2°44.882 -999 -999 -999 -999 -999
2007-08-08 09:18:56 51°16.51 2°44.86 -999 -999 -999 -999 -999
2007-08-08 09:19:01 51°16.519 2°44.837 -999 -999 -999 -999 -999
2007-08-08 09:19:06 51°16.528 2°44.813 -999 -999 -999 -999 -999
2007-08-08 09:19:11 51°16.538 2°44.79 -999 -999 -999 -999 -999
2007-08-08 09:19:16 51°16.547 2°44.767 -999 -999 -999 -999 -999
2007-08-08 09:19:21 51°16.557 2°44.744 -999 -999 -999 -999 -999
2007-08-08 09:19:26 51°16.567 2°44.721 -999 -999 -999 -999 -999
2007-08-08 09:19:31 51°16.576 2°44.698 -999 -999 -999 -999 -999
2007-08-08 09:19:36 51°16.586 2°44.675 -999 -999 -999 -999 -999
2007-08-08 09:19:41 51°16.596 2°44.652 -999 -999 -999 -999 -999
2007-08-08 09:19:46 51°16.607 2°44.629 -999 -999 -999 -999 -999
2007-08-08 09:19:51 51°16.617 2°44.606 -999 -999 -999 -999 -999
2007-08-08 09:19:56 51°16.627 2°44.583 -999 -999 -999 -999 -999
2007-08-08 09:20:01 51°16.637 2°44.56 -999 -999 -999 -999 -999
2007-08-08 09:20:06 51°16.647 2°44.537 -999 -999 -999 -999 -999
2007-08-08 09:20:11 51°16.657 2°44.515 -999 -999 -999 -999 -999
2007-08-08 09:20:16 51°16.667 2°44.492 -999 -999 -999 -999 -999
2007-08-08 09:20:22 51°16.679 2°44.465 -999 -999 -999 -999 -999
2007-08-08 09:20:27 51°16.689 2°44.443 -999 -999 -999 -999 -999
2007-08-08 09:20:31 51°16.696 2°44.424 -999 -999 -999 -999 -999
2007-08-08 09:20:36 51°16.707 2°44.402 -999 -999 -999 -999 -999
2007-08-08 09:20:41 51°16.716 2°44.379 -999 -999 -999 -999 -999
2007-08-08 09:20:47 51°16.728 2°44.352 -999 -999 -999 -999 -999
2007-08-08 09:20:51 51°16.736 2°44.334 -999 -999 -999 -999 -999
2007-08-08 09:20:56 51°16.746 2°44.312 -999 -999 -999 -999 -999
2007-08-08 09:21:01 51°16.757 2°44.289 -999 -999 -999 -999 -999
2007-08-08 09:21:07 51°16.769 2°44.262 -999 -999 -999 -999 -999
2007-08-08 09:21:11 51°16.777 2°44.243 -999 -999 -999 -999 -999
2007-08-08 09:21:16 51°16.787 2°44.22 -999 -999 -999 -999 -999
2007-08-08 09:21:21 51°16.797 2°44.198 -999 -999 -999 -999 -999
2007-08-08 09:21:26 51°16.808 2°44.175 -999 -999 -999 -999 -999
2007-08-08 09:21:31 51°16.818 2°44.152 -999 -999 -999 -999 -999
2007-08-08 09:21:36 51°16.827 2°44.129 -999 -999 -999 -999 -999
2007-08-08 09:21:41 51°16.838 2°44.106 -999 -999 -999 -999 -999
2007-08-08 09:21:46 51°16.847 2°44.083 -999 -999 -999 -999 -999
2007-08-08 09:21:51 51°16.858 2°44.061 -999 -999 -999 -999 -999
2007-08-08 09:21:56 51°16.868 2°44.038 -999 -999 -999 -999 -999
2007-08-08 09:22:01 51°16.878 2°44.015 -999 -999 -999 -999 -999
2007-08-08 09:22:06 51°16.888 2°43.993 -999 -999 -999 -999 -999
2007-08-08 09:22:11 51°16.897 2°43.97 -999 -999 -999 -999 -999
2007-08-08 09:22:16 51°16.908 2°43.948 -999 -999 -999 -999 -999
2007-08-08 09:22:21 51°16.918 2°43.925 -999 -999 -999 -999 -999
2007-08-08 09:22:26 51°16.928 2°43.903 -999 -999 -999 -999 -999
2007-08-08 09:22:31 51°16.938 2°43.88 -999 -999 -999 -999 -999
2007-08-08 09:22:36 51°16.948 2°43.858 -999 -999 -999 -999 -999
2007-08-08 09:22:41 51°16.958 2°43.835 -999 -999 -999 -999 -999
2007-08-08 09:22:47 51°16.97 2°43.808 -999 -999 -999 -999 -999
2007-08-08 09:22:51 51°16.978 2°43.79 -999 -999 -999 -999 -999
2007-08-08 09:22:56 51°16.988 2°43.768 -999 -999 -999 -999 -999
2007-08-08 09:23:01 51°16.998 2°43.745 -999 -999 -999 -999 -999
2007-08-08 09:23:07 51°17.01 2°43.719 -999 -999 -999 -999 -999
2007-08-08 09:23:11 51°17.018 2°43.7 -999 -999 -999 -999 -999
2007-08-08 09:23:16 51°17.028 2°43.678 -999 -999 -999 -999 -999
2007-08-08 09:23:21 51°17.038 2°43.655 -999 -999 -999 -999 -999
2007-08-08 09:23:27 51°17.05 2°43.629 -999 -999 -999 -999 -999
2007-08-08 09:23:31 51°17.057 2°43.61 -999 -999 -999 -999 -999
2007-08-08 09:23:36 51°17.067 2°43.588 -999 -999 -999 -999 -999
2007-08-08 09:23:41 51°17.077 2°43.566 -999 -999 -999 -999 -999
2007-08-08 09:23:47 51°17.089 2°43.54 -999 -999 -999 -999 -999
2007-08-08 09:23:51 51°17.097 2°43.523 -999 -999 -999 -999 -999
2007-08-08 09:23:56 51°17.107 2°43.5 -999 -999 -999 -999 -999
2007-08-08 09:24:01 51°17.118 2°43.478 -999 -999 -999 -999 -999
2007-08-08 09:24:06 51°17.127 2°43.457 -999 -999 -999 -999 -999
2007-08-08 09:24:11 51°17.138 2°43.435 -999 -999 -999 -999 -999
2007-08-08 09:24:16 51°17.148 2°43.413 -999 -999 -999 -999 -999
2007-08-08 09:24:21 51°17.158 2°43.391 -999 -999 -999 -999 -999
2007-08-08 09:24:26 51°17.169 2°43.369 -999 -999 -999 -999 -999
2007-08-08 09:24:31 51°17.179 2°43.347 -999 -999 -999 -999 -999
2007-08-08 09:24:36 51°17.19 2°43.326 -999 -999 -999 -999 -999
2007-08-08 09:24:41 51°17.199 2°43.303 -999 -999 -999 -999 -999
2007-08-08 09:24:47 51°17.212 2°43.277 -999 -999 -999 -999 -999
2007-08-08 09:24:51 51°17.22 2°43.259 -999 -999 -999 -999 -999
2007-08-08 09:24:56 51°17.23 2°43.237 -999 -999 -999 -999 -999
2007-08-08 09:25:01 51°17.24 2°43.215 -999 -999 -999 -999 -999
2007-08-08 09:25:07 51°17.252 2°43.189 -999 -999 -999 -999 -999
2007-08-08 09:25:11 51°17.259 2°43.171 -999 -999 -999 -999 -999
2007-08-08 09:25:16 51°17.27 2°43.15 -999 -999 -999 -999 -999
2007-08-08 09:25:21 51°17.279 2°43.127 -999 -999 -999 -999 -999
2007-08-08 09:25:27 51°17.291 2°43.101 -999 -999 -999 -999 -999
2007-08-08 09:25:31 51°17.3 2°43.084 -999 -999 -999 -999 -999
2007-08-08 09:25:36 51°17.31 2°43.062 -999 -999 -999 -999 -999
2007-08-08 09:25:41 51°17.32 2°43.04 -999 -999 -999 -999 -999
2007-08-08 09:25:47 51°17.332 2°43.014 -999 -999 -999 -999 -999
2007-08-08 09:25:51 51°17.341 2°42.998 -999 -999 -999 -999 -999
2007-08-08 09:25:56 51°17.351 2°42.975 -999 -999 -999 -999 -999
2007-08-08 09:26:01 51°17.361 2°42.954 -999 -999 -999 -999 -999
2007-08-08 09:26:07 51°17.373 2°42.929 -999 -999 -999 -999 -999
2007-08-08 09:26:11 51°17.382 2°42.912 -999 -999 -999 -999 -999
2007-08-08 09:26:16 51°17.392 2°42.89 -999 -999 -999 -999 -999
2007-08-08 09:26:21 51°17.402 2°42.868 -999 -999 -999 -999 -999
2007-08-08 09:26:26 51°17.412 2°42.847 -999 -999 -999 -999 -999
2007-08-08 09:26:31 51°17.422 2°42.825 -999 -999 -999 -999 -999
2007-08-08 09:26:36 51°17.432 2°42.803 -999 -999 -999 -999 -999
2007-08-08 09:26:41 51°17.442 2°42.781 -999 -999 -999 -999 -999
2007-08-08 09:26:46 51°17.453 2°42.759 -999 -999 -999 -999 -999
2007-08-08 09:26:51 51°17.463 2°42.737 -999 -999 -999 -999 -999
2007-08-08 09:26:56 51°17.474 2°42.716 -999 -999 -999 -999 -999
2007-08-08 09:27:01 51°17.484 2°42.694 -999 -999 -999 -999 -999
2007-08-08 09:27:07 51°17.496 2°42.667 -999 -999 -999 -999 -999
2007-08-08 09:27:11 51°17.504 2°42.649 -999 -999 -999 -999 -999
2007-08-08 09:27:16 51°17.514 2°42.627 -999 -999 -999 -999 -999
2007-08-08 09:27:21 51°17.524 2°42.605 -999 -999 -999 -999 -999
2007-08-08 09:27:27 51°17.536 2°42.579 -999 -999 -999 -999 -999
2007-08-08 09:27:31 51°17.545 2°42.561 -999 -999 -999 -999 -999
2007-08-08 09:27:36 51°17.555 2°42.539 -999 -999 -999 -999 -999
2007-08-08 09:27:41 51°17.565 2°42.517 -999 -999 -999 -999 -999
2007-08-08 09:27:47 51°17.578 2°42.49 -999 -999 -999 -999 -999
2007-08-08 09:27:51 51°17.586 2°42.472 -999 -999 -999 -999 -999
2007-08-08 09:27:56 51°17.597 2°42.45 -999 -999 -999 -999 -999
2007-08-08 09:28:01 51°17.607 2°42.428 -999 -999 -999 -999 -999
2007-08-08 09:28:07 51°17.62 2°42.401 -999 -999 -999 -999 -999
2007-08-08 09:28:11 51°17.628 2°42.383 -999 -999 -999 -999 -999
2007-08-08 09:28:16 51°17.639 2°42.361 -999 -999 -999 -999 -999
2007-08-08 09:28:21 51°17.649 2°42.338 -999 -999 -999 -999 -999
2007-08-08 09:28:26 51°17.659 2°42.316 -999 -999 -999 -999 -999
2007-08-08 09:28:31 51°17.67 2°42.294 -999 -999 -999 -999 -999
2007-08-08 09:28:36 51°17.68 2°42.272 -999 -999 -999 -999 -999
2007-08-08 09:28:41 51°17.691 2°42.249 -999 -999 -999 -999 -999
2007-08-08 09:28:46 51°17.702 2°42.227 -999 -999 -999 -999 -999
2007-08-08 09:28:51 51°17.712 2°42.205 -999 -999 -999 -999 -999
2007-08-08 09:28:56 51°17.723 2°42.183 -999 -999 -999 -999 -999
2007-08-08 09:29:01 51°17.733 2°42.16 -999 -999 -999 -999 -999
2007-08-08 09:29:07 51°17.746 2°42.134 -999 -999 -999 -999 -999
2007-08-08 09:29:11 51°17.754 2°42.116 -999 -999 -999 -999 -999
2007-08-08 09:29:16 51°17.765 2°42.094 -999 -999 -999 -999 -999
2007-08-08 09:29:21 51°17.776 2°42.072 -999 -999 -999 -999 -999
2007-08-08 09:29:27 51°17.788 2°42.045 -999 -999 -999 -999 -999
2007-08-08 09:29:31 51°17.797 2°42.027 -999 -999 -999 -999 -999
2007-08-08 09:29:36 51°17.808 2°42.005 -999 -999 -999 -999 -999
2007-08-08 09:29:41 51°17.818 2°41.983 -999 -999 -999 -999 -999
2007-08-08 09:29:46 51°17.829 2°41.961 -999 -999 -999 -999 -999
2007-08-08 09:29:51 51°17.84 2°41.939 -999 -999 -999 -999 -999
2007-08-08 09:29:56 51°17.851 2°41.916 -999 -999 -999 -999 -999
2007-08-08 09:30:01 51°17.862 2°41.894 -999 -999 -999 -999 -999
2007-08-08 09:30:07 51°17.874 2°41.867 -999 -999 -999 -999 -999
2007-08-08 09:30:11 51°17.883 2°41.849 -999 -999 -999 -999 -999
2007-08-08 09:30:16 51°17.894 2°41.828 -999 -999 -999 -999 -999
2007-08-08 09:30:21 51°17.905 2°41.806 -999 -999 -999 -999 -999
2007-08-08 09:30:27 51°17.918 2°41.779 -999 -999 -999 -999 -999
2007-08-08 09:30:31 51°17.927 2°41.762 -999 -999 -999 -999 -999
2007-08-08 09:30:36 51°17.938 2°41.739 -999 -999 -999 -999 -999
2007-08-08 09:30:41 51°17.949 2°41.717 -999 -999 -999 -999 -999
2007-08-08 09:30:46 51°17.959 2°41.694 -999 -999 -999 -999 -999
2007-08-08 09:30:51 51°17.97 2°41.672 -999 -999 -999 -999 -999
2007-08-08 09:30:56 51°17.98 2°41.649 -999 -999 -999 -999 -999
2007-08-08 09:31:01 51°17.991 2°41.627 -999 -999 -999 -999 -999
2007-08-08 09:31:06 51°18.001 2°41.604 -999 -999 -999 -999 -999
2007-08-08 09:31:11 51°18.012 2°41.582 -999 -999 -999 -999 -999
2007-08-08 09:31:16 51°18.023 2°41.559 -999 -999 -999 -999 -999
2007-08-08 09:31:21 51°18.034 2°41.537 -999 -999 -999 -999 -999
2007-08-08 09:31:27 51°18.046 2°41.51 -999 -999 -999 -999 -999
2007-08-08 09:31:31 51°18.054 2°41.492 -999 -999 -999 -999 -999
2007-08-08 09:31:36 51°18.066 2°41.47 -999 -999 -999 -999 -999
2007-08-08 09:31:41 51°18.076 2°41.448 -999 -999 -999 -999 -999
2007-08-08 09:31:46 51°18.087 2°41.425 -999 -999 -999 -999 -999
2007-08-08 09:31:51 51°18.098 2°41.403 -999 -999 -999 -999 -999
2007-08-08 09:31:56 51°18.109 2°41.381 -999 -999 -999 -999 -999
2007-08-08 09:32:02 51°18.121 2°41.353 -999 -999 -999 -999 -999
2007-08-08 09:32:07 51°18.131 2°41.33 -999 -999 -999 -999 -999
2007-08-08 09:32:11 51°18.14 2°41.312 -999 -999 -999 -999 -999
2007-08-08 09:32:16 51°18.15 2°41.29 -999 -999 -999 -999 -999
2007-08-08 09:32:22 51°18.162 2°41.263 -999 -999 -999 -999 -999
2007-08-08 09:32:27 51°18.173 2°41.241 -999 -999 -999 -999 -999
2007-08-08 09:32:31 51°18.18 2°41.224 -999 -999 -999 -999 -999
2007-08-08 09:32:36 51°18.191 2°41.202 -999 -999 -999 -999 -999
2007-08-08 09:32:41 51°18.201 2°41.18 -999 -999 -999 -999 -999
2007-08-08 09:32:47 51°18.213 2°41.153 -999 -999 -999 -999 -999
2007-08-08 09:32:51 51°18.222 2°41.136 -999 -999 -999 -999 -999
2007-08-08 09:32:56 51°18.233 2°41.114 -999 -999 -999 -999 -999
2007-08-08 09:33:01 51°18.243 2°41.093 -999 -999 -999 -999 -999
2007-08-08 09:33:06 51°18.253 2°41.07 -999 -999 -999 -999 -999
2007-08-08 09:33:11 51°18.264 2°41.049 -999 -999 -999 -999 -999
2007-08-08 09:33:16 51°18.274 2°41.027 -999 -999 -999 -999 -999
2007-08-08 09:33:21 51°18.285 2°41.005 -999 -999 -999 -999 -999
2007-08-08 09:33:27 51°18.297 2°40.979 -999 -999 -999 -999 -999
2007-08-08 09:33:31 51°18.306 2°40.962 -999 -999 -999 -999 -999
2007-08-08 09:33:36 51°18.316 2°40.94 -999 -999 -999 -999 -999
2007-08-08 09:33:41 51°18.327 2°40.92 -999 -999 -999 -999 -999
2007-08-08 09:33:46 51°18.336 2°40.897 -999 -999 -999 -999 -999
2007-08-08 09:33:51 51°18.346 2°40.876 -999 -999 -999 -999 -999
2007-08-08 09:33:56 51°18.356 2°40.855 -999 -999 -999 -999 -999
2007-08-08 09:34:02 51°18.369 2°40.829 -999 -999 -999 -999 -999
2007-08-08 09:34:06 51°18.377 2°40.812 -999 -999 -999 -999 -999
2007-08-08 09:34:11 51°18.387 2°40.791 -999 -999 -999 -999 -999
2007-08-08 09:34:16 51°18.397 2°40.769 -999 -999 -999 -999 -999
2007-08-08 09:34:22 51°18.41 2°40.743 -999 -999 -999 -999 -999
2007-08-08 09:34:27 51°18.42 2°40.72 -999 -999 -999 -999 -999
2007-08-08 09:34:31 51°18.428 2°40.703 -999 -999 -999 -999 -999
2007-08-08 09:34:36 51°18.439 2°40.681 -999 -999 -999 -999 -999
2007-08-08 09:34:41 51°18.449 2°40.659 -999 -999 -999 -999 -999
2007-08-08 09:34:47 51°18.462 2°40.633 -999 -999 -999 -999 -999
2007-08-08 09:34:51 51°18.471 2°40.617 -999 -999 -999 -999 -999
2007-08-08 09:34:56 51°18.481 2°40.595 -999 -999 -999 -999 -999
2007-08-08 09:35:01 51°18.492 2°40.574 -999 -999 -999 -999 -999
2007-08-08 09:35:07 51°18.504 2°40.547 -999 -999 -999 -999 -999
2007-08-08 09:35:11 51°18.512 2°40.53 -999 -999 -999 -999 -999
2007-08-08 09:35:16 51°18.523 2°40.509 -999 -999 -999 -999 -999
2007-08-08 09:35:21 51°18.533 2°40.486 -999 -999 -999 -999 -999
2007-08-08 09:35:26 51°18.544 2°40.465 -999 -999 -999 -999 -999
2007-08-08 09:35:31 51°18.555 2°40.444 -999 -999 -999 -999 -999
2007-08-08 09:35:36 51°18.565 2°40.422 -999 -999 -999 -999 -999
2007-08-08 09:35:41 51°18.575 2°40.401 -999 -999 -999 -999 -999
2007-08-08 09:35:46 51°18.586 2°40.38 -999 -999 -999 -999 -999
2007-08-08 09:35:51 51°18.595 2°40.358 -999 -999 -999 -999 -999
2007-08-08 09:35:56 51°18.606 2°40.337 -999 -999 -999 -999 -999
2007-08-08 09:36:01 51°18.616 2°40.315 -999 -999 -999 -999 -999
2007-08-08 09:36:06 51°18.627 2°40.293 -999 -999 -999 -999 -999
2007-08-08 09:36:11 51°18.636 2°40.271 -999 -999 -999 -999 -999
2007-08-08 09:36:16 51°18.647 2°40.249 -999 -999 -999 -999 -999
2007-08-08 09:36:22 51°18.659 2°40.223 -999 -999 -999 -999 -999
2007-08-08 09:36:27 51°18.669 2°40.201 -999 -999 -999 -999 -999
2007-08-08 09:36:31 51°18.678 2°40.183 -999 -999 -999 -999 -999
2007-08-08 09:36:36 51°18.688 2°40.162 -999 -999 -999 -999 -999
2007-08-08 09:36:41 51°18.699 2°40.14 -999 -999 -999 -999 -999
2007-08-08 09:36:47 51°18.711 2°40.114 -999 -999 -999 -999 -999
2007-08-08 09:36:51 51°18.719 2°40.096 -999 -999 -999 -999 -999
2007-08-08 09:36:56 51°18.73 2°40.074 -999 -999 -999 -999 -999
2007-08-08 09:37:01 51°18.74 2°40.052 -999 -999 -999 -999 -999
2007-08-08 09:37:07 51°18.753 2°40.026 -999 -999 -999 -999 -999
2007-08-08 09:37:11 51°18.76 2°40.008 -999 -999 -999 -999 -999
2007-08-08 09:37:16 51°18.771 2°39.986 -999 -999 -999 -999 -999
2007-08-08 09:37:21 51°18.782 2°39.965 -999 -999 -999 -999 -999
2007-08-08 09:37:27 51°18.794 2°39.938 -999 -999 -999 -999 -999
2007-08-08 09:37:31 51°18.802 2°39.921 -999 -999 -999 -999 -999
2007-08-08 09:37:36 51°18.813 2°39.899 -999 -999 -999 -999 -999
2007-08-08 09:37:41 51°18.824 2°39.877 -999 -999 -999 -999 -999
2007-08-08 09:37:46 51°18.834 2°39.855 -999 -999 -999 -999 -999
2007-08-08 09:37:51 51°18.844 2°39.832 -999 -999 -999 -999 -999
2007-08-08 09:37:56 51°18.855 2°39.81 -999 -999 -999 -999 -999
2007-08-08 09:38:01 51°18.865 2°39.788 -999 -999 -999 -999 -999
2007-08-08 09:38:06 51°18.876 2°39.766 -999 -999 -999 -999 -999
2007-08-08 09:38:11 51°18.887 2°39.744 -999 -999 -999 -999 -999
2007-08-08 09:38:16 51°18.897 2°39.722 -999 -999 -999 -999 -999
2007-08-08 09:38:22 51°18.91 2°39.695 -999 -999 -999 -999 -999
2007-08-08 09:38:27 51°18.921 2°39.673 -999 -999 -999 -999 -999
2007-08-08 09:38:31 51°18.929 2°39.655 -999 -999 -999 -999 -999
2007-08-08 09:38:36 51°18.939 2°39.633 -999 -999 -999 -999 -999
2007-08-08 09:38:41 51°18.95 2°39.611 -999 -999 -999 -999 -999
2007-08-08 09:38:47 51°18.963 2°39.585 -999 -999 -999 -999 -999
2007-08-08 09:38:51 51°18.971 2°39.566 -999 -999 -999 -999 -999
2007-08-08 09:38:56 51°18.983 2°39.545 -999 -999 -999 -999 -999
2007-08-08 09:39:01 51°18.993 2°39.522 -999 -999 -999 -999 -999
2007-08-08 09:39:07 51°19.006 2°39.496 -999 -999 -999 -999 -999
2007-08-08 09:39:11 51°19.014 2°39.478 -999 -999 -999 -999 -999
2007-08-08 09:39:16 51°19.024 2°39.456 -999 -999 -999 -999 -999
2007-08-08 09:39:21 51°19.035 2°39.434 -999 -999 -999 -999 -999
2007-08-08 09:39:27 51°19.047 2°39.407 -999 -999 -999 -999 -999
2007-08-08 09:39:31 51°19.056 2°39.389 -999 -999 -999 -999 -999
2007-08-08 09:39:36 51°19.066 2°39.366 -999 -999 -999 -999 -999
2007-08-08 09:39:41 51°19.077 2°39.344 -999 -999 -999 -999 -999
2007-08-08 09:39:46 51°19.088 2°39.322 -999 -999 -999 -999 -999
2007-08-08 09:39:51 51°19.098 2°39.299 -999 -999 -999 -999 -999
2007-08-08 09:39:56 51°19.109 2°39.277 -999 -999 -999 -999 -999
2007-08-08 09:40:01 51°19.119 2°39.255 -999 -999 -999 -999 -999
2007-08-08 09:40:06 51°19.131 2°39.233 -999 -999 -999 -999 -999
2007-08-08 09:40:11 51°19.14 2°39.21 -999 -999 -999 -999 -999
2007-08-08 09:40:16 51°19.151 2°39.188 -999 -999 -999 -999 -999
2007-08-08 09:40:21 51°19.161 2°39.165 -999 -999 -999 -999 -999
2007-08-08 09:40:26 51°19.172 2°39.144 -999 -999 -999 -999 -999
2007-08-08 09:40:31 51°19.181 2°39.121 -999 -999 -999 -999 -999
2007-08-08 09:40:36 51°19.192 2°39.099 -999 -999 -999 -999 -999
2007-08-08 09:40:41 51°19.203 2°39.077 -999 -999 -999 -999 -999
2007-08-08 09:40:46 51°19.213 2°39.055 -999 -999 -999 -999 -999
2007-08-08 09:40:51 51°19.224 2°39.032 -999 -999 -999 -999 -999
2007-08-08 09:40:56 51°19.234 2°39.01 -999 -999 -999 -999 -999
2007-08-08 09:41:02 51°19.247 2°38.983 -999 -999 -999 -999 -999
2007-08-08 09:41:07 51°19.256 2°38.959 -999 -999 -999 -999 -999
2007-08-08 09:41:11 51°19.265 2°38.942 -999 -999 -999 -999 -999
2007-08-08 09:41:16 51°19.275 2°38.919 -999 -999 -999 -999 -999
2007-08-08 09:41:21 51°19.286 2°38.897 -999 -999 -999 -999 -999
2007-08-08 09:41:27 51°19.298 2°38.869 -999 -999 -999 -999 -999
2007-08-08 09:41:31 51°19.307 2°38.851 -999 -999 -999 -999 -999
2007-08-08 09:41:36 51°19.317 2°38.829 -999 -999 -999 -999 -999
2007-08-08 09:41:41 51°19.328 2°38.806 -999 -999 -999 -999 -999
2007-08-08 09:41:47 51°19.341 2°38.78 -999 -999 -999 -999 -999
2007-08-08 09:41:51 51°19.349 2°38.761 -999 -999 -999 -999 -999
2007-08-08 09:41:56 51°19.36 2°38.739 -999 -999 -999 -999 -999
2007-08-08 09:42:01 51°19.371 2°38.716 -999 -999 -999 -999 -999
2007-08-08 09:42:07 51°19.383 2°38.688 -999 -999 -999 -999 -999
2007-08-08 09:42:11 51°19.392 2°38.67 -999 -999 -999 -999 -999
2007-08-08 09:42:16 51°19.402 2°38.648 -999 -999 -999 -999 -999
2007-08-08 09:42:21 51°19.413 2°38.625 -999 -999 -999 -999 -999
2007-08-08 09:42:26 51°19.424 2°38.602 -999 -999 -999 -999 -999
2007-08-08 09:42:31 51°19.435 2°38.58 -999 -999 -999 -999 -999
2007-08-08 09:42:36 51°19.445 2°38.557 -999 -999 -999 -999 -999
2007-08-08 09:42:41 51°19.456 2°38.534 -999 -999 -999 -999 -999
2007-08-08 09:42:46 51°19.467 2°38.512 -999 -999 -999 -999 -999
2007-08-08 09:42:51 51°19.477 2°38.488 -999 -999 -999 -999 -999
2007-08-08 09:42:56 51°19.487 2°38.465 -999 -999 -999 -999 -999
2007-08-08 09:43:02 51°19.5 2°38.438 -999 -999 -999 -999 -999
2007-08-08 09:43:07 51°19.51 2°38.415 -999 -999 -999 -999 -999
2007-08-08 09:43:11 51°19.518 2°38.397 -999 -999 -999 -999 -999
2007-08-08 09:43:16 51°19.529 2°38.375 -999 -999 -999 -999 -999
2007-08-08 09:43:21 51°19.539 2°38.352 -999 -999 -999 -999 -999
2007-08-08 09:43:27 51°19.551 2°38.325 -999 -999 -999 -999 -999
2007-08-08 09:43:31 51°19.56 2°38.307 -999 -999 -999 -999 -999
2007-08-08 09:43:36 51°19.57 2°38.284 -999 -999 -999 -999 -999
2007-08-08 09:43:41 51°19.581 2°38.262 -999 -999 -999 -999 -999
2007-08-08 09:43:47 51°19.593 2°38.235 -999 -999 -999 -999 -999
2007-08-08 09:43:51 51°19.601 2°38.216 -999 -999 -999 -999 -999
2007-08-08 09:43:56 51°19.612 2°38.194 -999 -999 -999 -999 -999
2007-08-08 09:44:01 51°19.622 2°38.172 -999 -999 -999 -999 -999
2007-08-08 09:44:07 51°19.635 2°38.144 -999 -999 -999 -999 -999
2007-08-08 09:44:11 51°19.643 2°38.126 -999 -999 -999 -999 -999
2007-08-08 09:44:16 51°19.653 2°38.104 -999 -999 -999 -999 -999
2007-08-08 09:44:21 51°19.664 2°38.081 -999 -999 -999 -999 -999
2007-08-08 09:44:27 51°19.676 2°38.054 -999 -999 -999 -999 -999
2007-08-08 09:44:31 51°19.684 2°38.036 -999 -999 -999 -999 -999
2007-08-08 09:44:36 51°19.695 2°38.014 -999 -999 -999 -999 -999
2007-08-08 09:44:41 51°19.705 2°37.991 -999 -999 -999 -999 -999
2007-08-08 09:44:46 51°19.715 2°37.968 -999 -999 -999 -999 -999
2007-08-08 09:44:51 51°19.726 2°37.946 -999 -999 -999 -999 -999
2007-08-08 09:44:56 51°19.736 2°37.923 -999 -999 -999 -999 -999
2007-08-08 09:45:02 51°19.748 2°37.896 -999 -999 -999 -999 -999
2007-08-08 09:45:06 51°19.756 2°37.878 -999 -999 -999 -999 -999
2007-08-08 09:45:11 51°19.767 2°37.856 -999 -999 -999 -999 -999
2007-08-08 09:45:16 51°19.776 2°37.833 -999 -999 -999 -999 -999
2007-08-08 09:45:21 51°19.787 2°37.811 -999 -999 -999 -999 -999
2007-08-08 09:45:27 51°19.799 2°37.784 -999 -999 -999 -999 -999
2007-08-08 09:45:31 51°19.808 2°37.767 -999 -999 -999 -999 -999
2007-08-08 09:45:36 51°19.818 2°37.744 -999 -999 -999 -999 -999
2007-08-08 09:45:41 51°19.83 2°37.723 -999 -999 -999 -999 -999
2007-08-08 09:45:47 51°19.842 2°37.696 -999 -999 -999 -999 -999
2007-08-08 09:45:51 51°19.85 2°37.678 -999 -999 -999 -999 -999
2007-08-08 09:45:56 51°19.86 2°37.656 -999 -999 -999 -999 -999
2007-08-08 09:46:01 51°19.871 2°37.633 -999 -999 -999 -999 -999
2007-08-08 09:46:07 51°19.883 2°37.607 -999 -999 -999 -999 -999
2007-08-08 09:46:11 51°19.889 2°37.59 -999 -999 -999 -999 -999
2007-08-08 09:46:16 51°19.896 2°37.571 -999 -999 -999 -999 -999
2007-08-08 09:46:21 51°19.903 2°37.552 -999 -999 -999 -999 -999
2007-08-08 09:46:27 51°19.911 2°37.533 -999 -999 -999 -999 -999
2007-08-08 09:46:31 51°19.915 2°37.521 -999 -999 -999 -999 -999
2007-08-08 09:46:36 51°19.92 2°37.507 -999 -999 -999 -999 -999
2007-08-08 09:46:41 51°19.925 2°37.494 -999 -999 -999 -999 -999
2007-08-08 09:46:46 51°19.928 2°37.482 -999 -999 -999 -999 -999
2007-08-08 09:46:51 51°19.932 2°37.47 -999 -999 -999 -999 -999
2007-08-08 09:46:56 51°19.935 2°37.46 -999 -999 -999 -999 -999
2007-08-08 09:47:02 51°19.939 2°37.448 -999 -999 -999 -999 -999
2007-08-08 09:47:06 51°19.941 2°37.441 -999 -999 -999 -999 -999
2007-08-08 09:47:11 51°19.943 2°37.432 -999 -999 -999 -999 -999
2007-08-08 09:47:16 51°19.945 2°37.424 -999 -999 -999 -999 -999
2007-08-08 09:47:21 51°19.947 2°37.417 -999 -999 -999 -999 -999
2007-08-08 09:47:27 51°19.949 2°37.409 -999 -999 -999 -999 -999
2007-08-08 09:47:31 51°19.95 2°37.403 -999 -999 -999 -999 -999
2007-08-08 09:47:36 51°19.952 2°37.397 -999 -999 -999 -999 -999
2007-08-08 09:47:42 51°19.953 2°37.39 -999 -999 -999 -999 -999
2007-08-08 09:47:47 51°19.955 2°37.384 -999 -999 -999 -999 -999
2007-08-08 09:47:52 51°19.956 2°37.379 -999 -999 -999 -999 -999
2007-08-08 09:47:57 51°19.957 2°37.374 -999 -999 -999 -999 -999
2007-08-08 09:48:02 51°19.958 2°37.37 -999 -999 -999 -999 -999
2007-08-08 09:48:07 51°19.959 2°37.365 -999 -999 -999 -999 -999
2007-08-08 09:48:12 51°19.96 2°37.361 -999 -999 -999 -999 -999
2007-08-08 09:48:17 51°19.961 2°37.357 -999 -999 -999 -999 -999
2007-08-08 09:48:22 51°19.962 2°37.353 -999 -999 -999 -999 -999
2007-08-08 09:48:27 51°19.963 2°37.349 -999 -999 -999 -999 -999
2007-08-08 09:48:32 51°19.964 2°37.346 -999 -999 -999 -999 -999
2007-08-08 09:48:37 51°19.965 2°37.342 -999 -999 -999 -999 -999
2007-08-08 09:48:42 51°19.965 2°37.339 -999 -999 -999 -999 -999
2007-08-08 09:48:47 51°19.966 2°37.335 -999 -999 -999 -999 -999
2007-08-08 09:48:52 51°19.967 2°37.331 -999 -999 -999 -999 -999
2007-08-08 09:48:57 51°19.968 2°37.326 -999 -999 -999 -999 -999
2007-08-08 09:49:02 51°19.97 2°37.321 -999 -999 -999 -999 -999
2007-08-08 09:49:07 51°19.971 2°37.315 -999 -999 -999 -999 -999
2007-08-08 09:49:12 51°19.973 2°37.309 -999 -999 -999 -999 -999
2007-08-08 09:49:17 51°19.974 2°37.303 -999 -999 -999 -999 -999
2007-08-08 09:49:22 51°19.976 2°37.297 -999 -999 -999 -999 -999
2007-08-08 09:49:27 51°19.978 2°37.29 -999 -999 -999 -999 -999
2007-08-08 09:49:32 51°19.98 2°37.283 -999 -999 -999 -999 -999
2007-08-08 09:49:37 51°19.982 2°37.276 -999 -999 -999 -999 -999
2007-08-08 09:49:42 51°19.984 2°37.268 -999 -999 -999 -999 -999
2007-08-08 09:49:47 51°19.986 2°37.261 -999 -999 -999 -999 -999
2007-08-08 09:49:52 51°19.988 2°37.253 -999 -999 -999 -999 -999
2007-08-08 09:49:57 51°19.99 2°37.245 -999 -999 -999 -999 -999
2007-08-08 09:50:02 51°19.992 2°37.236 -999 -999 -999 -999 -999
2007-08-08 09:50:07 51°19.993 2°37.228 -999 -999 -999 -999 -999
2007-08-08 09:50:12 51°19.995 2°37.219 -999 -999 -999 -999 -999
2007-08-08 09:50:17 51°19.997 2°37.21 -999 -999 -999 -999 -999
2007-08-08 09:50:22 51°19.999 2°37.2 -999 -999 -999 -999 -999
2007-08-08 09:50:27 51°20.001 2°37.191 -999 -999 -999 -999 -999
2007-08-08 09:50:32 51°20.003 2°37.182 -999 -999 -999 -999 -999
2007-08-08 09:50:37 51°20.005 2°37.173 -999 -999 -999 -999 -999
2007-08-08 09:50:42 51°20.008 2°37.164 -999 -999 -999 -999 -999
2007-08-08 09:50:47 51°20.011 2°37.155 -999 -999 -999 -999 -999
2007-08-08 09:50:52 51°20.013 2°37.146 -999 -999 -999 -999 -999
2007-08-08 09:50:57 51°20.016 2°37.137 -999 -999 -999 -999 -999
2007-08-08 09:51:02 51°20.019 2°37.128 -999 -999 -999 -999 -999
2007-08-08 09:51:07 51°20.022 2°37.12 -999 -999 -999 -999 -999
2007-08-08 09:51:12 51°20.025 2°37.112 -999 -999 -999 -999 -999
2007-08-08 09:51:17 51°20.028 2°37.106 -999 -999 -999 -999 -999
2007-08-08 09:51:22 51°20.03 2°37.099 -999 -999 -999 -999 -999
2007-08-08 09:51:27 51°20.033 2°37.092 -999 -999 -999 -999 -999
2007-08-08 09:51:32 51°20.035 2°37.086 -999 -999 -999 -999 -999
2007-08-08 09:51:37 51°20.038 2°37.08 -999 -999 -999 -999 -999
2007-08-08 09:51:42 51°20.04 2°37.075 -999 -999 -999 -999 -999
2007-08-08 09:51:47 51°20.042 2°37.07 -999 -999 -999 -999 -999
2007-08-08 09:51:52 51°20.045 2°37.064 -999 -999 -999 -999 -999
2007-08-08 09:51:57 51°20.047 2°37.059 -999 -999 -999 -999 -999
2007-08-08 09:52:02 51°20.049 2°37.055 -999 -999 -999 -999 -999
2007-08-08 09:52:07 51°20.051 2°37.05 -999 -999 -999 -999 -999
2007-08-08 09:52:12 51°20.053 2°37.046 -999 -999 -999 -999 -999
2007-08-08 09:52:17 51°20.055 2°37.041 -999 -999 -999 -999 -999
2007-08-08 09:52:22 51°20.056 2°37.037 -999 -999 -999 -999 -999
2007-08-08 09:52:27 51°20.058 2°37.033 -999 -999 -999 -999 -999
2007-08-08 09:52:32 51°20.059 2°37.029 -999 -999 -999 -999 -999
2007-08-08 09:52:37 51°20.06 2°37.025 -999 -999 -999 -999 -999
2007-08-08 09:52:42 51°20.061 2°37.021 -999 -999 -999 -999 -999
2007-08-08 09:52:47 51°20.062 2°37.017 -999 -999 -999 -999 -999
2007-08-08 09:52:52 51°20.062 2°37.013 -999 -999 -999 -999 -999
2007-08-08 09:52:57 51°20.063 2°37.009 -999 -999 -999 -999 -999
2007-08-08 09:53:02 51°20.064 2°37.005 -999 -999 -999 -999 -999
2007-08-08 09:53:07 51°20.065 2°37.002 -999 -999 -999 -999 -999
2007-08-08 09:53:12 51°20.066 2°36.998 -999 -999 -999 -999 -999
2007-08-08 09:53:17 51°20.066 2°36.994 -999 -999 -999 -999 -999
2007-08-08 09:53:22 51°20.067 2°36.99 -999 -999 -999 -999 -999
2007-08-08 09:53:27 51°20.068 2°36.987 -999 -999 -999 -999 -999
2007-08-08 09:53:32 51°20.068 2°36.983 -999 -999 -999 -999 -999
2007-08-08 09:53:37 51°20.069 2°36.979 -999 -999 -999 -999 -999
2007-08-08 09:53:42 51°20.07 2°36.976 -999 -999 -999 -999 -999
2007-08-08 09:53:47 51°20.071 2°36.972 -999 -999 -999 -999 -999